createdAt,value
2019-02-16T00:00:54.233Z,6.99
2019-02-16T00:01:54.213Z,7.01
2019-02-16T00:02:54.201Z,6.99
2019-02-16T00:03:54.191Z,6.99
2019-02-16T00:04:54.203Z,6.90
2019-02-16T00:05:54.199Z,6.87
2019-02-16T00:06:54.152Z,6.81
2019-02-16T00:07:54.158Z,6.79
2019-02-16T00:08:54.135Z,6.81
2019-02-16T00:09:54.130Z,6.79
2019-02-16T00:10:54.138Z,6.81
2019-02-16T00:11:54.141Z,6.75
2019-02-16T00:12:54.093Z,6.78
2019-02-16T00:13:54.085Z,6.79
2019-02-16T00:14:54.071Z,6.79
2019-02-16T00:15:54.066Z,6.71
2019-02-16T00:16:54.051Z,6.72
2019-02-16T00:17:54.052Z,6.65
2019-02-16T00:18:54.030Z,6.69
2019-02-16T00:19:54.022Z,6.64
2019-02-16T00:20:54.003Z,6.68
2019-02-16T00:21:54.010Z,6.57
2019-02-16T00:22:54.015Z,6.55
2019-02-16T00:23:54.030Z,6.53
2019-02-16T00:24:53.961Z,6.58
2019-02-16T00:25:53.976Z,6.61
2019-02-16T00:26:53.936Z,6.54
2019-02-16T00:27:53.963Z,6.51
2019-02-16T00:28:53.946Z,6.48
2019-02-16T00:29:53.926Z,6.42
2019-02-16T00:30:53.917Z,6.48
2019-02-16T00:31:53.892Z,6.53
2019-02-16T00:32:55.753Z,6.57
2019-02-16T00:33:53.888Z,6.40
2019-02-16T00:34:53.891Z,6.42
2019-02-16T00:35:53.852Z,6.43
2019-02-16T00:36:53.856Z,6.45
2019-02-16T00:37:53.819Z,6.39
2019-02-16T00:38:54.319Z,6.40
2019-02-16T00:39:53.827Z,6.38
2019-02-16T00:40:53.859Z,6.35
2019-02-16T00:41:53.846Z,6.30
2019-02-16T00:42:53.798Z,6.36
2019-02-16T00:43:53.757Z,6.36
2019-02-16T00:44:53.760Z,6.33
2019-02-16T00:45:53.765Z,6.33
2019-02-16T00:46:53.732Z,6.33
2019-02-16T00:47:53.767Z,6.32
2019-02-16T00:48:53.711Z,6.25
2019-02-16T00:49:53.701Z,6.33
2019-02-16T00:50:53.718Z,6.32
2019-02-16T00:51:53.674Z,6.38
2019-02-16T00:52:53.670Z,6.33
2019-02-16T00:53:53.650Z,6.30
2019-02-16T00:54:53.658Z,6.32
2019-02-16T00:55:53.662Z,6.27
2019-02-16T00:56:53.624Z,6.27
2019-02-16T00:57:53.610Z,6.27
2019-02-16T00:58:53.601Z,6.32
2019-02-16T00:59:53.582Z,6.25
2019-02-16T01:00:53.590Z,6.24
2019-02-16T01:01:53.621Z,6.24
2019-02-16T01:02:53.570Z,6.21
2019-02-16T01:03:53.551Z,6.11
2019-02-16T01:04:53.538Z,6.21
2019-02-16T01:05:53.543Z,6.19
2019-02-16T01:06:53.509Z,6.17
2019-02-16T01:07:53.518Z,6.10
2019-02-16T01:08:53.527Z,6.17
2019-02-16T01:09:53.491Z,6.06
2019-02-16T01:10:53.490Z,6.13
2019-02-16T01:11:53.457Z,6.13
2019-02-16T01:12:53.480Z,6.05
2019-02-16T01:13:53.451Z,6.03
2019-02-16T01:14:53.445Z,6.02
2019-02-16T01:15:53.421Z,6.03
2019-02-16T01:16:53.412Z,6.13
2019-02-16T01:17:53.389Z,6.14
2019-02-16T01:18:53.408Z,5.99
2019-02-16T01:19:53.377Z,5.99
2019-02-16T01:20:53.377Z,5.99
2019-02-16T01:21:53.350Z,6.02
2019-02-16T01:22:53.344Z,6.01
2019-02-16T01:23:53.348Z,6.01
2019-02-16T01:24:53.339Z,5.95
2019-02-16T01:25:53.329Z,5.98
2019-02-16T01:26:53.292Z,5.99
2019-02-16T01:27:53.313Z,5.93
2019-02-16T01:28:53.276Z,5.99
2019-02-16T01:29:53.291Z,5.90
2019-02-16T01:30:53.273Z,5.99
2019-02-16T01:31:53.265Z,5.92
2019-02-16T01:32:53.244Z,5.85
2019-02-16T01:33:53.228Z,5.90
2019-02-16T01:34:53.269Z,5.92
2019-02-16T01:35:53.210Z,5.78
2019-02-16T01:36:53.210Z,5.78
2019-02-16T01:37:53.219Z,5.80
2019-02-16T01:38:53.188Z,5.75
2019-02-16T01:39:53.197Z,5.67
2019-02-16T01:40:53.156Z,5.77
2019-02-16T01:41:53.144Z,5.73
2019-02-16T01:42:53.144Z,5.74
2019-02-16T01:43:53.130Z,5.77
2019-02-16T01:44:53.161Z,5.63
2019-02-16T01:45:53.130Z,5.60
2019-02-16T01:46:53.103Z,5.55
2019-02-16T01:47:53.087Z,5.63
2019-02-16T01:48:53.065Z,5.63
2019-02-16T01:49:53.047Z,5.65
2019-02-16T01:50:53.034Z,5.60
2019-02-16T01:51:53.059Z,5.51
2019-02-16T01:52:53.041Z,5.56
2019-02-16T01:53:53.024Z,5.45
2019-02-16T01:54:53.020Z,5.38
2019-02-16T01:55:53.020Z,5.47
2019-02-16T01:56:52.988Z,5.40
2019-02-16T01:57:53.009Z,5.41
2019-02-16T01:58:52.970Z,5.38
2019-02-16T01:59:52.958Z,5.42
2019-02-16T02:00:52.947Z,5.42
2019-02-16T02:01:52.927Z,5.41
2019-02-16T02:02:52.924Z,5.38
2019-02-16T02:03:52.936Z,5.32
2019-02-16T02:04:53.127Z,5.40
2019-02-16T02:05:52.886Z,5.38
2019-02-16T02:06:52.895Z,5.32
2019-02-16T02:07:52.872Z,5.26
2019-02-16T02:08:52.879Z,5.30
2019-02-16T02:09:52.844Z,5.26
2019-02-16T02:10:52.857Z,5.24
2019-02-16T02:11:52.828Z,5.29
2019-02-16T02:12:52.826Z,5.27
2019-02-16T02:13:52.808Z,5.27
2019-02-16T02:14:52.831Z,5.20
2019-02-16T02:15:52.794Z,5.22
2019-02-16T02:16:52.789Z,5.24
2019-02-16T02:17:52.770Z,5.19
2019-02-16T02:18:52.791Z,5.08
2019-02-16T02:19:52.800Z,5.12
2019-02-16T02:20:52.827Z,5.12
2019-02-16T02:21:52.762Z,5.14
2019-02-16T02:22:52.707Z,5.14
2019-02-16T02:23:52.761Z,5.08
2019-02-16T02:24:52.700Z,5.12
2019-02-16T02:25:52.681Z,5.14
2019-02-16T02:26:52.701Z,5.22
2019-02-16T02:27:52.681Z,5.09
2019-02-16T02:28:52.647Z,5.14
2019-02-16T02:29:52.659Z,5.11
2019-02-16T02:30:52.650Z,5.04
2019-02-16T02:31:52.622Z,5.12
2019-02-16T02:32:52.659Z,5.09
2019-02-16T02:33:52.631Z,5.04
2019-02-16T02:34:52.592Z,4.93
2019-02-16T02:35:52.595Z,4.90
2019-02-16T02:36:52.582Z,5.01
2019-02-16T02:37:52.552Z,4.97
2019-02-16T02:38:52.591Z,4.99
2019-02-16T02:39:52.531Z,4.96
2019-02-16T02:40:52.530Z,4.96
2019-02-16T02:41:52.506Z,4.94
2019-02-16T02:42:52.529Z,5.01
2019-02-16T02:43:52.488Z,4.96
2019-02-16T02:44:52.524Z,4.88
2019-02-16T02:45:52.476Z,4.88
2019-02-16T02:46:52.463Z,4.93
2019-02-16T02:47:52.466Z,4.93
2019-02-16T02:48:52.437Z,4.93
2019-02-16T02:49:52.434Z,4.87
2019-02-16T02:50:52.488Z,4.94
2019-02-16T02:51:52.616Z,4.97
2019-02-16T02:52:52.403Z,4.93
2019-02-16T02:53:52.396Z,4.90
2019-02-16T02:54:52.373Z,4.91
2019-02-16T02:55:52.366Z,4.93
2019-02-16T02:56:52.369Z,4.86
2019-02-16T02:57:52.346Z,4.91
2019-02-16T02:58:52.336Z,4.96
2019-02-16T02:59:52.331Z,4.90
2019-02-16T03:00:52.322Z,4.90
2019-02-16T03:01:52.323Z,4.90
2019-02-16T03:02:52.299Z,4.91
2019-02-16T03:03:52.289Z,4.91
2019-02-16T03:04:52.310Z,4.93
2019-02-16T03:05:52.274Z,4.93
2019-02-16T03:06:52.261Z,4.94
2019-02-16T03:07:52.265Z,4.90
2019-02-16T03:08:52.230Z,4.94
2019-02-16T03:09:52.228Z,4.86
2019-02-16T03:10:52.210Z,4.91
2019-02-16T03:11:52.222Z,4.96
2019-02-16T03:12:52.201Z,4.93
2019-02-16T03:13:52.198Z,4.96
2019-02-16T03:14:52.177Z,4.94
2019-02-16T03:15:52.169Z,4.94
2019-02-16T03:16:52.149Z,4.99
2019-02-16T03:17:52.138Z,4.96
2019-02-16T03:18:52.159Z,4.93
2019-02-16T03:19:52.106Z,4.94
2019-02-16T03:20:52.127Z,4.94
2019-02-16T03:22:02.129Z,4.97
2019-02-16T03:22:53.083Z,4.96
2019-02-16T03:23:52.083Z,4.94
2019-02-16T03:24:52.090Z,4.93
2019-02-16T03:25:52.049Z,4.93
2019-02-16T03:26:52.032Z,5.01
2019-02-16T03:27:52.032Z,4.96
2019-02-16T03:28:52.027Z,4.83
2019-02-16T03:29:52.050Z,4.97
2019-02-16T03:30:52.019Z,4.87
2019-02-16T03:31:51.993Z,4.88
2019-02-16T03:32:51.992Z,4.84
2019-02-16T03:33:51.979Z,4.87
2019-02-16T03:34:52.071Z,4.84
2019-02-16T03:35:51.970Z,4.90
2019-02-16T03:36:51.936Z,4.94
2019-02-16T03:37:51.921Z,4.83
2019-02-16T03:38:51.914Z,4.94
2019-02-16T03:39:51.913Z,4.90
2019-02-16T03:40:51.929Z,4.93
2019-02-16T03:41:51.912Z,4.87
2019-02-16T03:42:51.872Z,4.86
2019-02-16T03:43:51.856Z,4.93
2019-02-16T03:44:51.850Z,4.91
2019-02-16T03:45:51.848Z,4.72
2019-02-16T03:46:51.864Z,4.69
2019-02-16T03:47:51.839Z,4.83
2019-02-16T03:48:51.803Z,4.83
2019-02-16T03:49:51.879Z,4.72
2019-02-16T03:50:51.781Z,4.75
2019-02-16T03:51:51.802Z,4.83
2019-02-16T03:52:51.782Z,4.65
2019-02-16T03:53:51.758Z,4.72
2019-02-16T03:54:51.749Z,4.72
2019-02-16T03:55:51.731Z,4.69
2019-02-16T03:56:51.722Z,4.62
2019-02-16T03:57:51.747Z,4.64
2019-02-16T03:58:51.717Z,4.62
2019-02-16T03:59:51.686Z,4.59
2019-02-16T04:00:51.685Z,4.57
2019-02-16T04:01:52.163Z,4.61
2019-02-16T04:02:51.674Z,4.54
2019-02-16T04:03:51.656Z,4.54
2019-02-16T04:04:51.654Z,4.59
2019-02-16T04:05:51.627Z,4.53
2019-02-16T04:06:51.617Z,4.46
2019-02-16T04:07:51.640Z,4.50
2019-02-16T04:08:51.589Z,4.43
2019-02-16T04:09:51.598Z,4.44
2019-02-16T04:10:51.591Z,4.42
2019-02-16T04:11:51.567Z,4.39
2019-02-16T04:12:51.574Z,4.28
2019-02-16T04:13:51.548Z,4.31
2019-02-16T04:14:51.531Z,4.28
2019-02-16T04:15:51.540Z,4.32
2019-02-16T04:16:51.507Z,4.32
2019-02-16T04:17:51.511Z,4.38
2019-02-16T04:18:51.495Z,4.31
2019-02-16T04:19:51.465Z,4.28
2019-02-16T04:20:51.470Z,4.28
2019-02-16T04:21:51.455Z,4.26
2019-02-16T04:22:51.449Z,4.32
2019-02-16T04:23:51.424Z,4.26
2019-02-16T04:24:51.432Z,4.28
2019-02-16T04:25:51.452Z,4.17
2019-02-16T04:26:51.407Z,4.21
2019-02-16T04:27:51.407Z,4.16
2019-02-16T04:28:51.376Z,4.25
2019-02-16T04:29:51.423Z,4.18
2019-02-16T04:30:51.367Z,4.13
2019-02-16T04:31:51.355Z,4.14
2019-02-16T04:32:51.357Z,4.17
2019-02-16T04:33:51.322Z,4.14
2019-02-16T04:34:51.312Z,4.06
2019-02-16T04:35:51.303Z,4.11
2019-02-16T04:36:51.294Z,4.10
2019-02-16T04:37:51.302Z,4.04
2019-02-16T04:38:51.279Z,4.13
2019-02-16T04:39:51.281Z,4.08
2019-02-16T04:40:51.254Z,4.08
2019-02-16T04:41:51.258Z,4.10
2019-02-16T04:42:51.268Z,4.02
2019-02-16T04:43:51.215Z,4.02
2019-02-16T04:44:51.197Z,3.92
2019-02-16T04:45:51.191Z,3.90
2019-02-16T04:46:51.182Z,3.92
2019-02-16T04:47:51.168Z,3.95
2019-02-16T04:48:51.180Z,3.92
2019-02-16T04:49:51.152Z,3.92
2019-02-16T04:50:51.151Z,3.88
2019-02-16T04:51:51.149Z,3.93
2019-02-16T04:52:51.134Z,3.93
2019-02-16T04:53:51.118Z,3.96
2019-02-16T04:54:51.123Z,3.95
2019-02-16T04:55:51.089Z,3.89
2019-02-16T04:56:51.094Z,3.89
2019-02-16T04:57:51.073Z,3.86
2019-02-16T04:58:51.052Z,3.81
2019-02-16T04:59:51.048Z,3.84
2019-02-16T05:00:51.074Z,3.89
2019-02-16T05:01:51.032Z,3.84
2019-02-16T05:02:51.026Z,3.88
2019-02-16T05:03:51.017Z,3.88
2019-02-16T05:04:50.982Z,3.88
2019-02-16T05:05:50.978Z,3.77
2019-02-16T05:06:50.992Z,3.82
2019-02-16T05:07:50.965Z,3.81
2019-02-16T05:08:50.940Z,3.78
2019-02-16T05:09:50.933Z,3.82
2019-02-16T05:10:50.920Z,3.86
2019-02-16T05:11:50.915Z,3.75
2019-02-16T05:12:50.942Z,3.78
2019-02-16T05:13:50.896Z,3.78
2019-02-16T05:14:50.872Z,3.82
2019-02-16T05:15:50.869Z,3.80
2019-02-16T05:16:50.857Z,3.86
2019-02-16T05:17:50.843Z,3.78
2019-02-16T05:18:50.859Z,3.86
2019-02-16T05:19:50.844Z,3.86
2019-02-16T05:20:50.813Z,3.80
2019-02-16T05:21:50.806Z,3.80
2019-02-16T05:22:50.799Z,3.86
2019-02-16T05:23:50.775Z,3.84
2019-02-16T05:24:50.798Z,3.86
2019-02-16T05:25:51.187Z,3.95
2019-02-16T05:26:50.741Z,4.06
2019-02-16T05:27:50.740Z,4.16
2019-02-16T05:28:50.734Z,4.28
2019-02-16T05:29:50.710Z,4.32
2019-02-16T05:30:50.726Z,4.42
2019-02-16T05:31:50.710Z,4.42
2019-02-16T05:32:50.674Z,4.57
2019-02-16T05:33:50.665Z,4.56
2019-02-16T05:34:50.679Z,4.62
2019-02-16T05:35:50.646Z,4.68
2019-02-16T05:36:50.659Z,4.68
2019-02-16T05:37:50.621Z,4.83
2019-02-16T05:38:50.612Z,4.97
2019-02-16T05:39:50.610Z,5.04
2019-02-16T05:40:50.626Z,5.09
2019-02-16T05:41:50.587Z,5.14
2019-02-16T05:42:50.588Z,5.15
2019-02-16T05:43:50.569Z,5.14
2019-02-16T05:44:50.547Z,5.14
2019-02-16T05:45:50.576Z,5.20
2019-02-16T05:46:50.522Z,5.14
2019-02-16T05:47:50.557Z,5.22
2019-02-16T05:48:50.545Z,5.22
2019-02-16T05:49:50.548Z,5.30
2019-02-16T05:50:50.488Z,5.42
2019-02-16T05:51:50.492Z,5.55
2019-02-16T05:52:54.472Z,5.56
2019-02-16T05:53:50.544Z,5.60
2019-02-16T05:54:50.437Z,5.77
2019-02-16T05:55:50.441Z,5.74
2019-02-16T05:56:50.422Z,5.80
2019-02-16T05:57:50.433Z,5.85
2019-02-16T05:58:50.406Z,5.92
2019-02-16T05:59:50.432Z,5.96
2019-02-16T06:00:50.389Z,6.03
2019-02-16T06:01:53.756Z,6.05
2019-02-16T06:02:50.382Z,6.05
2019-02-16T06:03:50.365Z,5.99
2019-02-16T06:04:50.371Z,6.08
2019-02-16T06:05:50.331Z,5.93
2019-02-16T06:06:50.328Z,6.08
2019-02-16T06:07:50.308Z,6.16
2019-02-16T06:08:50.300Z,6.16
2019-02-16T06:09:50.279Z,6.13
2019-02-16T06:10:50.314Z,6.10
2019-02-16T06:11:50.263Z,6.11
2019-02-16T06:12:50.253Z,6.24
2019-02-16T06:13:50.247Z,6.24
2019-02-16T06:14:50.237Z,6.28
2019-02-16T06:15:50.217Z,6.28
2019-02-16T06:16:50.251Z,6.19
2019-02-16T06:17:50.234Z,6.30
2019-02-16T06:18:50.209Z,6.33
2019-02-16T06:19:50.174Z,6.30
2019-02-16T06:20:50.191Z,6.28
2019-02-16T06:21:50.193Z,6.27
2019-02-16T06:22:50.179Z,6.30
2019-02-16T06:23:50.144Z,6.36
2019-02-16T06:24:50.126Z,6.21
2019-02-16T06:25:50.133Z,6.32
2019-02-16T06:26:50.113Z,6.28
2019-02-16T06:27:50.105Z,6.24
2019-02-16T06:28:50.155Z,6.28
2019-02-16T06:29:50.071Z,6.25
2019-02-16T06:30:50.065Z,6.19
2019-02-16T06:31:50.069Z,6.24
2019-02-16T06:32:50.041Z,6.19
2019-02-16T06:33:50.046Z,6.19
2019-02-16T06:34:50.039Z,6.14
2019-02-16T06:35:50.006Z,6.25
2019-02-16T06:36:50.010Z,6.14
2019-02-16T06:37:49.993Z,6.16
2019-02-16T06:38:49.982Z,6.25
2019-02-16T06:39:49.999Z,6.33
2019-02-16T06:40:49.969Z,6.35
2019-02-16T06:41:49.942Z,6.35
2019-02-16T06:42:49.939Z,6.33
2019-02-16T06:43:49.923Z,6.33
2019-02-16T06:44:49.936Z,6.33
2019-02-16T06:45:49.949Z,6.39
2019-02-16T06:46:49.911Z,6.36
2019-02-16T06:47:49.879Z,6.39
2019-02-16T06:48:49.890Z,6.42
2019-02-16T06:49:49.884Z,6.42
2019-02-16T06:50:49.859Z,6.48
2019-02-16T06:51:49.851Z,6.50
2019-02-16T06:52:49.842Z,6.46
2019-02-16T06:53:49.823Z,6.42
2019-02-16T06:54:49.830Z,6.42
2019-02-16T06:55:49.809Z,6.42
2019-02-16T06:56:49.800Z,6.45
2019-02-16T06:57:49.792Z,6.45
2019-02-16T06:58:49.787Z,6.45
2019-02-16T06:59:49.796Z,6.42
2019-02-16T07:00:49.748Z,6.43
2019-02-16T07:01:49.750Z,6.36
2019-02-16T07:02:49.732Z,6.51
2019-02-16T07:03:49.718Z,6.36
2019-02-16T07:04:49.720Z,6.33
2019-02-16T07:05:49.697Z,6.32
2019-02-16T07:06:49.697Z,6.35
2019-02-16T07:07:49.674Z,6.32
2019-02-16T07:08:49.680Z,6.24
2019-02-16T07:09:49.684Z,6.20
2019-02-16T07:10:49.639Z,6.17
2019-02-16T07:11:49.634Z,6.13
2019-02-16T07:12:49.616Z,6.16
2019-02-16T07:13:49.609Z,6.08
2019-02-16T07:14:49.623Z,6.05
2019-02-16T07:15:49.615Z,6.05
2019-02-16T07:16:49.576Z,6.13
2019-02-16T07:17:49.567Z,6.06
2019-02-16T07:18:49.555Z,6.10
2019-02-16T07:19:49.546Z,6.17
2019-02-16T07:20:49.538Z,6.13
2019-02-16T07:21:49.565Z,6.13
2019-02-16T07:22:49.517Z,6.08
2019-02-16T07:23:49.502Z,6.20
2019-02-16T07:24:49.492Z,6.05
2019-02-16T07:25:49.482Z,6.06
2019-02-16T07:26:49.483Z,6.05
2019-02-16T07:27:49.495Z,6.11
2019-02-16T07:28:49.452Z,6.01
2019-02-16T07:29:49.449Z,6.03
2019-02-16T07:30:49.428Z,5.99
2019-02-16T07:31:49.418Z,6.02
2019-02-16T07:32:49.413Z,6.03
2019-02-16T07:33:49.434Z,6.13
2019-02-16T07:34:49.382Z,6.01
2019-02-16T07:35:49.378Z,6.14
2019-02-16T07:36:49.373Z,6.14
2019-02-16T07:37:49.367Z,6.10
2019-02-16T07:38:49.349Z,6.13
2019-02-16T07:39:49.378Z,6.06
2019-02-16T07:40:49.319Z,6.10
2019-02-16T07:41:49.324Z,6.17
2019-02-16T07:42:49.319Z,6.19
2019-02-16T07:43:49.289Z,6.27
2019-02-16T07:44:49.307Z,6.11
2019-02-16T07:45:49.389Z,6.16
2019-02-16T07:46:49.288Z,6.11
2019-02-16T07:47:49.255Z,6.10
2019-02-16T07:48:49.257Z,6.16
2019-02-16T07:49:49.231Z,6.16
2019-02-16T07:50:49.238Z,6.10
2019-02-16T07:51:49.224Z,6.13
2019-02-16T07:52:49.326Z,6.06
2019-02-16T07:53:49.189Z,6.19
2019-02-16T07:54:49.209Z,6.17
2019-02-16T07:55:49.192Z,6.19
2019-02-16T07:56:49.189Z,6.24
2019-02-16T07:57:49.137Z,6.25
2019-02-16T07:58:49.134Z,6.24
2019-02-16T07:59:49.129Z,6.27
2019-02-16T08:00:49.123Z,6.28
2019-02-16T08:01:49.097Z,6.24
2019-02-16T08:02:49.113Z,6.36
2019-02-16T08:03:49.147Z,6.32
2019-02-16T08:04:49.077Z,6.35
2019-02-16T08:05:49.111Z,6.42
2019-02-16T08:06:49.063Z,6.42
2019-02-16T08:07:49.041Z,6.45
2019-02-16T08:08:49.062Z,6.55
2019-02-16T08:09:49.050Z,6.54
2019-02-16T08:10:49.000Z,6.57
2019-02-16T08:11:49.001Z,6.68
2019-02-16T08:12:48.978Z,6.69
2019-02-16T08:13:48.996Z,6.68
2019-02-16T08:14:48.988Z,6.73
2019-02-16T08:15:48.958Z,6.71
2019-02-16T08:16:48.946Z,6.64
2019-02-16T08:17:48.932Z,6.82
2019-02-16T08:18:48.970Z,6.81
2019-02-16T08:19:48.916Z,6.82
2019-02-16T08:20:48.927Z,6.73
2019-02-16T08:21:48.889Z,6.78
2019-02-16T08:22:48.869Z,6.81
2019-02-16T08:23:48.878Z,6.87
2019-02-16T08:24:48.876Z,6.87
2019-02-16T08:25:48.865Z,6.90
2019-02-16T08:26:48.852Z,6.86
2019-02-16T08:27:48.818Z,6.89
2019-02-16T08:28:48.811Z,6.89
2019-02-16T08:29:48.801Z,6.94
2019-02-16T08:30:48.786Z,6.96
2019-02-16T08:31:48.822Z,7.05
2019-02-16T08:32:48.764Z,7.01
2019-02-16T08:33:48.755Z,7.08
2019-02-16T08:34:48.753Z,7.11
2019-02-16T08:35:48.749Z,7.15
2019-02-16T08:36:48.734Z,7.14
2019-02-16T08:37:48.767Z,7.15
2019-02-16T08:38:48.708Z,7.18
2019-02-16T08:39:48.704Z,7.15
2019-02-16T08:40:48.781Z,7.26
2019-02-16T08:41:48.684Z,7.33
2019-02-16T08:42:48.670Z,7.16
2019-02-16T08:43:48.681Z,7.18
2019-02-16T08:44:48.643Z,7.34
2019-02-16T08:45:48.657Z,7.34
2019-02-16T08:46:48.629Z,7.37
2019-02-16T08:47:48.605Z,7.33
2019-02-16T08:48:48.601Z,7.29
2019-02-16T08:49:48.633Z,7.27
2019-02-16T08:50:48.592Z,7.32
2019-02-16T08:51:48.570Z,7.34
2019-02-16T08:52:48.605Z,7.54
2019-02-16T08:53:50.037Z,7.42
2019-02-16T08:54:48.528Z,7.48
2019-02-16T08:55:48.562Z,7.47
2019-02-16T08:56:48.640Z,7.48
2019-02-16T08:57:48.502Z,7.50
2019-02-16T08:58:48.493Z,7.44
2019-02-16T08:59:48.482Z,7.48
2019-02-16T09:00:48.462Z,7.50
2019-02-16T09:01:48.719Z,7.55
2019-02-16T09:02:48.446Z,7.52
2019-02-16T09:03:48.432Z,7.60
2019-02-16T09:04:48.428Z,7.67
2019-02-16T09:05:48.417Z,7.67
2019-02-16T09:06:48.415Z,7.67
2019-02-16T09:07:48.448Z,7.67
2019-02-16T09:08:48.383Z,7.73
2019-02-16T09:09:48.377Z,7.67
2019-02-16T09:10:48.364Z,7.74
2019-02-16T09:11:48.380Z,7.82
2019-02-16T09:12:48.351Z,7.82
2019-02-16T09:13:48.376Z,7.76
2019-02-16T09:14:48.330Z,7.81
2019-02-16T09:15:48.321Z,7.88
2019-02-16T09:16:48.298Z,7.92
2019-02-16T09:17:48.291Z,7.86
2019-02-16T09:18:48.276Z,7.91
2019-02-16T09:19:48.292Z,7.85
2019-02-16T09:20:48.253Z,7.82
2019-02-16T09:21:48.235Z,7.92
2019-02-16T09:22:48.230Z,7.92
2019-02-16T09:23:48.251Z,7.92
2019-02-16T09:24:48.215Z,8.00
2019-02-16T09:25:48.575Z,8.12
2019-02-16T09:26:48.193Z,8.12
2019-02-16T09:27:48.176Z,8.25
2019-02-16T09:28:48.279Z,8.28
2019-02-16T09:29:48.183Z,8.37
2019-02-16T09:30:48.193Z,8.32
2019-02-16T09:31:48.163Z,8.37
2019-02-16T09:32:48.137Z,8.39
2019-02-16T09:33:48.111Z,8.34
2019-02-16T09:34:48.099Z,8.34
2019-02-16T09:35:48.104Z,8.32
2019-02-16T09:36:48.093Z,8.37
2019-02-16T09:37:48.096Z,8.32
2019-02-16T09:38:48.067Z,8.36
2019-02-16T09:39:48.052Z,8.36
2019-02-16T09:40:48.051Z,8.37
2019-02-16T09:41:48.041Z,8.42
2019-02-16T09:42:48.024Z,8.39
2019-02-16T09:43:48.027Z,8.45
2019-02-16T09:44:47.988Z,8.47
2019-02-16T09:45:47.991Z,8.54
2019-02-16T09:46:47.968Z,8.58
2019-02-16T09:47:47.961Z,8.49
2019-02-16T09:48:48.000Z,8.64
2019-02-16T09:49:47.943Z,8.67
2019-02-16T09:50:47.926Z,8.67
2019-02-16T09:51:47.920Z,8.67
2019-02-16T09:52:47.946Z,8.70
2019-02-16T09:53:47.957Z,8.76
2019-02-16T09:54:47.901Z,8.68
2019-02-16T09:55:47.875Z,8.76
2019-02-16T09:56:47.880Z,8.70
2019-02-16T09:57:47.874Z,8.64
2019-02-16T09:58:47.849Z,8.64
2019-02-16T09:59:47.825Z,8.65
2019-02-16T10:00:47.869Z,8.61
2019-02-16T10:01:47.817Z,8.64
2019-02-16T10:02:47.801Z,8.65
2019-02-16T10:03:47.793Z,8.64
2019-02-16T10:04:47.800Z,8.55
2019-02-16T10:05:47.763Z,8.64
2019-02-16T10:06:47.820Z,8.63
2019-02-16T10:07:47.768Z,8.67
2019-02-16T10:08:47.731Z,8.63
2019-02-16T10:09:47.775Z,8.80
2019-02-16T10:10:47.704Z,8.71
2019-02-16T10:11:47.713Z,8.67
2019-02-16T10:12:47.691Z,8.85
2019-02-16T10:13:47.674Z,8.96
2019-02-16T10:14:47.667Z,8.93
2019-02-16T10:15:47.666Z,8.91
2019-02-16T10:16:47.681Z,9.01
2019-02-16T10:17:47.632Z,8.91
2019-02-16T10:18:47.626Z,9.04
2019-02-16T10:19:47.618Z,8.97
2019-02-16T10:20:47.606Z,9.10
2019-02-16T10:21:47.621Z,9.06
2019-02-16T10:22:47.580Z,9.13
2019-02-16T10:23:47.561Z,9.04
2019-02-16T10:24:47.583Z,9.13
2019-02-16T10:25:47.571Z,9.19
2019-02-16T10:26:47.567Z,9.22
2019-02-16T10:27:47.519Z,9.20
2019-02-16T10:28:47.514Z,9.23
2019-02-16T10:29:47.505Z,9.17
2019-02-16T10:30:47.514Z,9.23
2019-02-16T10:31:47.501Z,9.34
2019-02-16T10:32:47.468Z,9.34
2019-02-16T10:33:47.459Z,9.35
2019-02-16T10:34:47.444Z,9.41
2019-02-16T10:35:47.436Z,9.49
2019-02-16T10:36:47.427Z,9.52
2019-02-16T10:37:47.439Z,9.56
2019-02-16T10:38:47.394Z,9.62
2019-02-16T10:39:47.447Z,9.73
2019-02-16T10:40:47.397Z,9.67
2019-02-16T10:41:47.372Z,9.60
2019-02-16T10:42:47.359Z,9.67
2019-02-16T10:43:47.365Z,9.65
2019-02-16T10:44:47.374Z,9.73
2019-02-16T10:45:47.328Z,9.85
2019-02-16T10:46:47.308Z,9.78
2019-02-16T10:47:47.309Z,9.92
2019-02-16T10:48:47.313Z,9.89
2019-02-16T10:49:47.287Z,10.02
2019-02-16T10:50:47.315Z,9.95
2019-02-16T10:51:47.342Z,9.96
2019-02-16T10:52:47.248Z,9.91
2019-02-16T10:53:47.288Z,10.04
2019-02-16T10:54:47.246Z,9.98
2019-02-16T10:55:47.252Z,10.02
2019-02-16T10:56:47.205Z,10.01
2019-02-16T10:57:47.230Z,10.01
2019-02-16T10:58:47.199Z,10.07
2019-02-16T10:59:47.256Z,10.16
2019-02-16T11:00:47.284Z,10.09
2019-02-16T11:01:47.211Z,10.16
2019-02-16T11:02:47.145Z,10.16
2019-02-16T11:03:47.126Z,10.18
2019-02-16T11:04:47.136Z,10.22
2019-02-16T11:05:47.111Z,10.24
2019-02-16T11:06:47.108Z,10.22
2019-02-16T11:07:47.096Z,10.28
2019-02-16T11:08:47.183Z,10.42
2019-02-16T11:09:47.062Z,10.35
2019-02-16T11:10:47.066Z,10.26
2019-02-16T11:11:47.058Z,10.35
2019-02-16T11:12:47.025Z,10.39
2019-02-16T11:13:47.065Z,10.51
2019-02-16T11:14:47.004Z,10.55
2019-02-16T11:15:47.018Z,10.63
2019-02-16T11:16:47.036Z,10.55
2019-02-16T11:17:46.983Z,10.65
2019-02-16T11:18:46.951Z,10.62
2019-02-16T11:19:46.953Z,10.70
2019-02-16T11:20:46.981Z,10.63
2019-02-16T11:21:46.937Z,10.68
2019-02-16T11:22:46.927Z,10.72
2019-02-16T11:23:46.902Z,10.69
2019-02-16T11:24:46.912Z,10.75
2019-02-16T11:25:46.876Z,10.65
2019-02-16T11:26:46.901Z,10.66
2019-02-16T11:27:46.863Z,10.69
2019-02-16T11:28:46.847Z,10.65
2019-02-16T11:29:46.868Z,10.75
2019-02-16T11:30:46.914Z,10.80
2019-02-16T11:31:46.833Z,10.80
2019-02-16T11:32:46.813Z,10.88
2019-02-16T11:33:46.791Z,10.98
2019-02-16T11:34:46.787Z,11.01
2019-02-16T11:35:46.774Z,11.08
2019-02-16T11:36:46.789Z,11.20
2019-02-16T11:37:46.782Z,11.19
2019-02-16T11:38:46.745Z,11.26
2019-02-16T11:39:46.723Z,11.28
2019-02-16T11:40:46.738Z,11.33
2019-02-16T11:41:46.722Z,11.24
2019-02-16T11:42:46.782Z,11.23
2019-02-16T11:43:46.678Z,11.20
2019-02-16T11:44:46.678Z,11.26
2019-02-16T11:45:46.662Z,11.26
2019-02-16T11:46:46.668Z,11.28
2019-02-16T11:47:46.685Z,11.28
2019-02-16T11:48:46.624Z,11.33
2019-02-16T11:49:46.616Z,11.33
2019-02-16T11:50:46.611Z,11.38
2019-02-16T11:51:46.604Z,11.46
2019-02-16T11:52:46.608Z,11.49
2019-02-16T11:53:46.612Z,11.49
2019-02-16T11:54:46.561Z,11.46
2019-02-16T11:55:46.553Z,11.51
2019-02-16T11:56:46.543Z,11.56
2019-02-16T11:57:46.534Z,11.48
2019-02-16T11:58:46.610Z,11.59
2019-02-16T11:59:46.515Z,11.70
2019-02-16T12:00:46.529Z,11.67
2019-02-16T12:01:46.492Z,11.75
2019-02-16T12:02:46.481Z,11.78
2019-02-16T12:03:46.476Z,11.78
2019-02-16T12:04:46.488Z,11.81
2019-02-16T12:05:46.453Z,11.84
2019-02-16T12:06:46.451Z,11.93
2019-02-16T12:07:46.434Z,11.93
2019-02-16T12:08:46.416Z,11.82
2019-02-16T12:09:46.427Z,11.87
2019-02-16T12:10:46.410Z,11.90
2019-02-16T12:11:46.380Z,11.98
2019-02-16T12:12:46.371Z,12.03
2019-02-16T12:13:46.352Z,12.07
2019-02-16T12:14:46.388Z,12.05
2019-02-16T12:15:46.354Z,12.11
2019-02-16T12:16:46.347Z,12.18
2019-02-16T12:17:46.310Z,12.13
2019-02-16T12:18:46.299Z,12.23
2019-02-16T12:19:46.295Z,12.29
2019-02-16T12:20:46.309Z,12.30
2019-02-16T12:21:46.282Z,12.29
2019-02-16T12:22:46.271Z,12.34
2019-02-16T12:23:46.255Z,12.30
2019-02-16T12:24:58.461Z,12.30
2019-02-16T12:25:47.248Z,12.41
2019-02-16T12:26:46.216Z,12.46
2019-02-16T12:27:46.233Z,12.51
2019-02-16T12:28:46.234Z,12.58
2019-02-16T12:29:46.212Z,12.61
2019-02-16T12:30:46.226Z,12.58
2019-02-16T12:31:46.166Z,12.63
2019-02-16T12:32:46.159Z,12.63
2019-02-16T12:33:46.155Z,12.69
2019-02-16T12:34:46.133Z,12.69
2019-02-16T12:35:46.118Z,12.59
2019-02-16T12:36:46.136Z,12.61
2019-02-16T12:37:46.100Z,12.73
2019-02-16T12:38:46.089Z,12.71
2019-02-16T12:39:46.073Z,12.80
2019-02-16T12:40:46.075Z,12.74
2019-02-16T12:41:46.085Z,12.79
2019-02-16T12:42:46.047Z,12.92
2019-02-16T12:43:46.035Z,12.96
2019-02-16T12:44:46.036Z,12.89
2019-02-16T12:45:51.321Z,12.87
2019-02-16T12:46:47.041Z,12.88
2019-02-16T12:47:46.003Z,12.89
2019-02-16T12:48:45.990Z,12.95
2019-02-16T12:49:45.976Z,13.01
2019-02-16T12:50:45.965Z,12.95
2019-02-16T12:51:45.951Z,12.98
2019-02-16T12:52:45.947Z,12.96
2019-02-16T12:53:45.940Z,12.98
2019-02-16T12:54:45.912Z,12.96
2019-02-16T12:55:45.906Z,13.01
2019-02-16T12:56:45.896Z,13.01
2019-02-16T12:57:45.913Z,12.96
2019-02-16T12:58:45.869Z,13.06
2019-02-16T12:59:45.871Z,13.07
2019-02-16T13:00:45.846Z,13.04
2019-02-16T13:01:45.848Z,13.06
2019-02-16T13:02:45.834Z,13.04
2019-02-16T13:03:45.842Z,13.04
2019-02-16T13:04:45.804Z,13.10
2019-02-16T13:05:45.797Z,13.16
2019-02-16T13:06:45.788Z,13.10
2019-02-16T13:07:45.786Z,13.19
2019-02-16T13:08:45.789Z,13.17
2019-02-16T13:09:45.780Z,13.19
2019-02-16T13:10:45.744Z,13.17
2019-02-16T13:11:45.753Z,13.14
2019-02-16T13:12:45.736Z,13.16
2019-02-16T13:13:45.763Z,13.21